Time;durP1;ratioP1;P1;durP2;ratioP2;P2;SDS_P1;SDS_P2;PMS_P1;PMS_P2;Temp;Humidity;BMP_temperature;BMP_pressure;BME280_temperature;BME280_humidity;BME280_pressure;Samples;Min_cycle;Max_cycle;Signal;HPM_P1;HPM_P2
2022/09/24 06:02:07;;;;;;;;;7.00;7.00;;;;;;;;5232013;22;45627;-58
2022/09/24 06:04:32;;;;;;;;;15.33;13.00;;;;;;;;5054947;28;45561;-59
2022/09/24 06:06:58;;;;;;;;;13.67;11.67;;;;;;;;5054980;28;45621;-59
2022/09/24 06:09:23;;;;;;;;;13.67;12.67;;;;;;;;5054264;28;45710;-59
2022/09/24 06:11:49;;;;;;;;;11.33;8.00;;;;;;;;5060185;28;45421;-59
2022/09/24 06:14:15;;;;;;;;;19.00;17.00;;;;;;;;5062767;28;45855;-59
2022/09/24 06:16:40;;;;;;;;;10.33;8.00;;;;;;;;5058659;28;47132;-58
2022/09/24 06:19:05;;;;;;;;;14.00;13.67;;;;;;;;5054767;28;45499;-58
2022/09/24 06:21:30;;;;;;;;;14.00;12.67;;;;;;;;5059164;28;45235;-61
2022/09/24 06:23:55;;;;;;;;;13.67;11.33;;;;;;;;5056379;28;45312;-58
2022/09/24 06:26:21;;;;;;;;;14.33;13.33;;;;;;;;5057662;28;45511;-58
2022/09/24 06:28:46;;;;;;;;;14.33;13.33;;;;;;;;5056769;28;45693;-58
2022/09/24 06:31:11;;;;;;;;;18.67;16.33;;;;;;;;5057861;28;45561;-59
2022/09/24 06:33:37;;;;;;;;;18.00;15.33;;;;;;;;5045076;28;45591;-58
2022/09/24 06:36:03;;;;;;;;;16.33;13.00;;;;;;;;5068853;28;47221;-58
2022/09/24 06:38:28;;;;;;;;;9.33;9.00;;;;;;;;5064824;28;45482;-59
2022/09/24 06:40:58;;;;;;;;;14.00;11.33;;;;;;;;5059573;28;46247;-59
2022/09/24 06:43:23;;;;;;;;;15.00;13.33;;;;;;;;5053930;28;45751;-60
2022/09/24 06:45:48;;;;;;;;;12.67;12.67;;;;;;;;5060109;28;46303;-59
2022/09/24 06:48:13;;;;;;;;;14.00;13.00;;;;;;;;5056365;28;45272;-58
2022/09/24 06:50:43;;;;;;;;;14.67;14.00;;;;;;;;5044133;28;45213;-60
2022/09/24 06:53:09;;;;;;;;;13.33;13.33;;;;;;;;5053157;28;45560;-58
2022/09/24 06:55:35;;;;;;;;;15.67;14.00;;;;;;;;5059322;28;46938;-59
2022/09/24 06:58:05;;;;;;;;;15.67;15.00;;;;;;;;5053914;28;46017;-59
2022/09/24 07:00:30;;;;;;;;;14.67;13.00;;;;;;;;5054567;28;45515;-59
2022/09/24 07:02:55;;;;;;;;;16.00;15.00;;;;;;;;5066366;28;45469;-59
2022/09/24 07:05:21;;;;;;;;;16.67;15.00;;;;;;;;5056585;28;46246;-58
2022/09/24 07:07:46;;;;;;;;;16.33;15.00;;;;;;;;5052611;28;45514;-58
2022/09/24 07:10:12;;;;;;;;;16.67;14.33;;;;;;;;5066523;28;45264;-59
2022/09/24 07:12:40;;;;;;;;;17.67;14.00;;;;;;;;5060553;28;45351;-60
2022/09/24 07:15:05;;;;;;;;;15.00;15.00;;;;;;;;5056860;28;46851;-59
2022/09/24 07:17:30;;;;;;;;;17.33;13.00;;;;;;;;5043655;28;45308;-59
2022/09/24 07:19:55;;;;;;;;;16.00;15.00;;;;;;;;5048011;28;45426;-58
2022/09/24 07:22:21;;;;;;;;;19.67;16.00;;;;;;;;5044754;28;45464;-59
2022/09/24 07:24:46;;;;;;;;;10.33;9.00;;;;;;;;5057114;28;46157;-59
2022/09/24 07:27:12;;;;;;;;;10.33;10.00;;;;;;;;5054435;28;45758;-59
2022/09/24 07:29:37;;;;;;;;;14.00;12.33;;;;;;;;5054928;28;45484;-60
2022/09/24 07:32:02;;;;;;;;;16.33;15.00;;;;;;;;5045369;28;45380;-60
2022/09/24 07:34:28;;;;;;;;;18.00;16.33;;;;;;;;5054813;28;45411;-60
2022/09/24 07:36:54;;;;;;;;;14.67;14.33;;;;;;;;5059863;28;45405;-58
2022/09/24 07:39:20;;;;;;;;;13.00;12.67;;;;;;;;5060663;28;45427;-59
2022/09/24 07:41:45;;;;;;;;;16.67;15.00;;;;;;;;5051079;28;45308;-59
2022/09/24 07:44:11;;;;;;;;;19.33;14.33;;;;;;;;5052754;28;46864;-59
2022/09/24 07:46:36;;;;;;;;;14.33;13.33;;;;;;;;5063235;28;45624;-59
2022/09/24 07:49:01;;;;;;;;;15.00;13.67;;;;;;;;5052784;28;46097;-59
2022/09/24 07:51:27;;;;;;;;;19.00;16.33;;;;;;;;5061273;28;45529;-60
2022/09/24 07:53:53;;;;;;;;;12.67;12.67;;;;;;;;5055235;28;46062;-59
2022/09/24 07:56:18;;;;;;;;;11.67;11.67;;;;;;;;5053612;28;45389;-59
2022/09/24 07:58:46;;;;;;;;;15.67;13.33;;;;;;;;5054378;28;45379;-60
2022/09/24 08:01:13;;;;;;;;;14.00;13.00;;;;;;;;5059214;28;45406;-59
2022/09/24 08:03:39;;;;;;;;;12.33;12.00;;;;;;;;5056020;28;47318;-58
2022/09/24 08:06:04;;;;;;;;;11.33;10.67;;;;;;;;5029471;28;45750;-59
2022/09/24 08:08:30;;;;;;;;;15.00;13.00;;;;;;;;5067904;28;45385;-60
2022/09/24 08:10:55;;;;;;;;;11.33;10.00;;;;;;;;5055080;28;45627;-60
2022/09/24 08:13:20;;;;;;;;;12.33;11.33;;;;;;;;5066909;28;45711;-61
2022/09/24 08:15:45;;;;;;;;;15.33;11.33;;;;;;;;5058175;28;45792;-60
2022/09/24 08:18:11;;;;;;;;;11.00;10.00;;;;;;;;5047592;28;45414;-60
2022/09/24 08:20:37;;;;;;;;;13.00;10.00;;;;;;;;5057618;28;45300;-59
2022/09/24 08:23:06;;;;;;;;;11.00;7.33;;;;;;;;5056389;28;45821;-58
2022/09/24 08:25:32;;;;;;;;;11.67;8.67;;;;;;;;5050510;28;45590;-59
2022/09/24 08:28:01;;;;;;;;;12.33;10.67;;;;;;;;5053658;28;45288;-58
2022/09/24 08:30:26;;;;;;;;;9.33;9.00;;;;;;;;5055410;28;45311;-60
2022/09/24 08:32:51;;;;;;;;;9.00;8.00;;;;;;;;5053187;28;46155;-59
2022/09/24 08:35:16;;;;;;;;;7.33;6.33;;;;;;;;5060724;28;45215;-60
2022/09/24 08:37:41;;;;;;;;;9.00;8.00;;;;;;;;5052988;28;45264;-60
2022/09/24 08:40:13;;;;;;;;;7.67;7.67;;;;;;;;5057261;28;45832;-59
2022/09/24 08:42:44;;;;;;;;;11.67;7.00;;;;;;;;5049688;28;45570;-60
2022/09/24 08:47:59;;;;;;;;;8.67;7.00;;;;;;;;5052967;28;45382;-59
2022/09/24 08:50:29;;;;;;;;;12.67;9.00;;;;;;;;5057850;28;45599;-59
2022/09/24 08:52:59;;;;;;;;;10.00;9.00;;;;;;;;5059091;28;45374;-59
2022/09/24 08:55:36;;;;;;;;;8.67;8.67;;;;;;;;5054085;28;45323;-59
2022/09/24 08:58:07;;;;;;;;;9.33;7.33;;;;;;;;5053639;28;45388;-59
2022/09/24 09:00:38;;;;;;;;;10.00;7.67;;;;;;;;5053555;28;45510;-59
2022/09/24 09:03:07;;;;;;;;;13.00;9.33;;;;;;;;5057970;28;45370;-61
2022/09/24 09:05:42;;;;;;;;;11.67;9.67;;;;;;;;5056451;28;45486;-59
2022/09/24 09:08:18;;;;;;;;;15.00;10.33;;;;;;;;5051430;28;45516;-59
2022/09/24 09:10:43;;;;;;;;;9.67;7.00;;;;;;;;5056384;28;45431;-60
2022/09/24 09:13:14;;;;;;;;;12.33;10.00;;;;;;;;5054276;28;46236;-59
2022/09/24 09:15:45;;;;;;;;;12.00;10.00;;;;;;;;5047072;28;45369;-58
2022/09/24 09:18:11;;;;;;;;;8.67;8.00;;;;;;;;5051893;28;45646;-59
2022/09/24 09:20:44;;;;;;;;;13.00;11.67;;;;;;;;5054846;28;45435;-60
2022/09/24 09:23:12;;;;;;;;;9.00;6.67;;;;;;;;5067704;28;46271;-59
2022/09/24 09:25:40;;;;;;;;;14.00;9.33;;;;;;;;5057121;28;45465;-59
2022/09/24 09:28:13;;;;;;;;;14.67;9.00;;;;;;;;5055517;28;45422;-59
2022/09/24 09:30:43;;;;;;;;;14.67;13.67;;;;;;;;5062243;28;45255;-58
2022/09/24 09:33:28;;;;;;;;;12.00;9.00;;;;;;;;5054449;28;45510;-55
2022/09/24 09:35:59;;;;;;;;;11.67;8.33;;;;;;;;5053798;28;46860;-58
2022/09/24 09:38:32;;;;;;;;;9.33;9.00;;;;;;;;5059015;28;45452;-58
2022/09/24 09:41:12;;;;;;;;;11.00;7.67;;;;;;;;5058159;28;45327;-59
2022/09/24 09:43:40;;;;;;;;;10.00;10.00;;;;;;;;5029533;28;47353;-59
2022/09/24 09:46:11;;;;;;;;;10.00;9.33;;;;;;;;5053582;28;45544;-58
2022/09/24 09:48:57;;;;;;;;;14.33;10.00;;;;;;;;5051390;28;45401;-58
2022/09/24 09:51:25;;;;;;;;;9.33;9.33;;;;;;;;5056271;28;45587;-58
2022/09/24 09:53:53;;;;;;;;;14.00;11.67;;;;;;;;5068312;28;45457;-58
2022/09/24 09:56:22;;;;;;;;;12.67;10.00;;;;;;;;5053844;28;45429;-58
2022/09/24 09:58:51;;;;;;;;;9.33;9.33;;;;;;;;5057519;28;45697;-58
2022/09/24 10:01:17;;;;;;;;;10.00;6.67;;;;;;;;5025182;28;45495;-59
2022/09/24 10:03:45;;;;;;;;;15.00;13.33;;;;;;;;5069198;28;45462;-58
2022/09/24 10:06:26;;;;;;;;;8.67;8.67;;;;;;;;5056398;28;45284;-58
2022/09/24 10:08:52;;;;;;;;;12.67;12.00;;;;;;;;5062066;28;45378;-58
2022/09/24 10:11:18;;;;;;;;;8.67;8.67;;;;;;;;5066592;28;45690;-59
2022/09/24 10:13:44;;;;;;;;;9.67;9.67;;;;;;;;5055563;28;46020;-58
2022/09/24 10:16:11;;;;;;;;;12.33;12.33;;;;;;;;5057226;28;45416;-58
2022/09/24 10:18:40;;;;;;;;;15.33;14.00;;;;;;;;5058559;28;45372;-58
2022/09/24 10:21:08;;;;;;;;;18.67;18.00;;;;;;;;5056051;28;45551;-58
2022/09/24 10:23:34;;;;;;;;;18.00;14.33;;;;;;;;5060989;28;46145;-59
2022/09/24 10:26:00;;;;;;;;;17.00;16.00;;;;;;;;5059162;28;45476;-59
2022/09/24 10:31:13;;;;;;;;;15.67;14.33;;;;;;;;5068056;28;45626;-58
2022/09/24 10:33:44;;;;;;;;;10.00;9.33;;;;;;;;5067750;28;46782;-59
2022/09/24 10:36:14;;;;;;;;;15.67;15.00;;;;;;;;5066311;28;45529;-58
2022/09/24 10:38:40;;;;;;;;;13.00;12.00;;;;;;;;5051576;28;45406;-58
2022/09/24 10:41:16;;;;;;;;;20.67;18.33;;;;;;;;5062340;28;45477;-59
2022/09/24 10:43:49;;;;;;;;;18.67;17.67;;;;;;;;5040407;28;45691;-58
2022/09/24 10:46:14;;;;;;;;;17.00;16.00;;;;;;;;5046065;28;45358;-59
2022/09/24 10:49:02;;;;;;;;;17.00;16.50;;;;;;;;5045300;28;45347;-58
2022/09/24 10:51:33;;;;;;;;;16.00;15.00;;;;;;;;5059104;28;45514;-59
2022/09/24 10:54:01;;;;;;;;;23.00;21.00;;;;;;;;5052264;28;46214;-59
2022/09/24 10:56:37;;;;;;;;;12.00;12.00;;;;;;;;5045612;28;45406;-58
2022/09/24 10:59:22;;;;;;;;;21.33;19.67;;;;;;;;5052004;28;45496;-58
2022/09/24 11:01:59;;;;;;;;;19.00;18.00;;;;;;;;5047489;28;45424;-60
2022/09/24 11:04:44;;;;;;;;;24.67;18.00;;;;;;;;5046588;28;45568;-59
2022/09/24 11:07:27;;;;;;;;;20.00;19.00;;;;;;;;5053113;28;45501;-59
2022/09/24 11:10:01;;;;;;;;;19.67;18.33;;;;;;;;5050451;28;45307;-59
2022/09/24 11:12:47;;;;;;;;;18.33;17.00;;;;;;;;5023907;28;45619;-59
2022/09/24 11:15:41;;;;;;;;;19.00;16.00;;;;;;;;5050231;28;47165;-59
2022/09/24 11:18:30;;;;;;;;;15.33;13.67;;;;;;;;5048379;28;45514;-59
2022/09/24 11:21:13;;;;;;;;;17.33;15.67;;;;;;;;5052895;28;45396;-58
2022/09/24 11:23:41;;;;;;;;;17.33;17.33;;;;;;;;5041708;28;45738;-58
2022/09/24 11:26:18;;;;;;;;;17.33;16.00;;;;;;;;5047646;28;45469;-59
2022/09/24 11:28:57;;;;;;;;;18.67;16.67;;;;;;;;5053248;28;45527;-59
2022/09/24 11:31:31;;;;;;;;;10.00;9.67;;;;;;;;5046056;28;45396;-59
2022/09/24 11:34:15;;;;;;;;;17.33;15.67;;;;;;;;5045824;28;45382;-59
2022/09/24 11:36:52;;;;;;;;;16.00;14.33;;;;;;;;5054914;28;46308;-59
2022/09/24 11:39:17;;;;;;;;;15.00;15.00;;;;;;;;5062318;28;45563;-59
2022/09/24 11:41:49;;;;;;;;;16.00;13.67;;;;;;;;5055631;28;45597;-59
2022/09/24 11:44:25;;;;;;;;;16.67;16.67;;;;;;;;5062575;28;45525;-59
2022/09/24 11:47:02;;;;;;;;;19.33;17.33;;;;;;;;5049443;28;45622;-59
2022/09/24 11:49:42;;;;;;;;;16.67;16.67;;;;;;;;5057854;28;45389;-59
2022/09/24 11:52:26;;;;;;;;;19.33;17.00;;;;;;;;5050694;28;45310;-59
2022/09/24 11:54:57;;;;;;;;;15.00;15.00;;;;;;;;5050920;28;45439;-59
2022/09/24 11:57:25;;;;;;;;;12.67;12.67;;;;;;;;5053455;28;46308;-59
2022/09/24 11:59:50;;;;;;;;;14.67;14.67;;;;;;;;5069683;28;45517;-60
2022/09/24 12:02:25;;;;;;;;;14.00;9.00;;;;;;;;5039863;28;45687;-63
2022/09/24 12:04:56;;;;;;;;;16.00;13.67;;;;;;;;5073739;28;45456;-63
2022/09/24 12:07:39;;;;;;;;;14.67;14.67;;;;;;;;5049006;28;45359;-63
2022/09/24 12:10:18;;;;;;;;;13.33;13.33;;;;;;;;5059158;28;45330;-61
2022/09/24 12:12:46;;;;;;;;;17.33;17.00;;;;;;;;5057066;28;45364;-60
2022/09/24 12:15:17;;;;;;;;;13.67;11.33;;;;;;;;5055691;28;45511;-60
2022/09/24 12:17:56;;;;;;;;;12.67;12.67;;;;;;;;5055909;28;46219;-61
2022/09/24 12:20:27;;;;;;;;;22.33;19.00;;;;;;;;5062018;28;45333;-59
2022/09/24 12:22:58;;;;;;;;;16.33;16.00;;;;;;;;5062031;28;45690;-60
2022/09/24 12:25:25;;;;;;;;;18.00;15.00;;;;;;;;5060594;28;45431;-59
2022/09/24 12:27:51;;;;;;;;;14.00;14.00;;;;;;;;5046349;28;45363;-60
2022/09/24 12:33:07;;;;;;;;;22.33;18.33;;;;;;;;5041979;28;45397;-62
2022/09/24 12:35:32;;;;;;;;;17.67;15.33;;;;;;;;5054238;28;45153;-64
2022/09/24 12:38:24;;;;;;;;;15.00;15.00;;;;;;;;5058194;28;45398;-64
2022/09/24 12:40:52;;;;;;;;;16.33;15.00;;;;;;;;5047079;28;45448;-66
2022/09/24 12:43:24;;;;;;;;;16.67;15.33;;;;;;;;5059486;28;45336;-66
2022/09/24 12:45:53;;;;;;;;;17.00;17.00;;;;;;;;5064841;28;45236;-64
2022/09/24 12:48:20;;;;;;;;;12.33;12.33;;;;;;;;5053838;28;46094;-65
2022/09/24 12:50:54;;;;;;;;;16.67;14.33;;;;;;;;5047710;28;45463;-66
2022/09/24 12:53:23;;;;;;;;;18.67;14.00;;;;;;;;5061307;28;45223;-65
2022/09/24 12:55:49;;;;;;;;;12.00;12.00;;;;;;;;5051788;28;45359;-65
2022/09/24 12:58:43;;;;;;;;;16.33;14.00;;;;;;;;5043454;28;45307;-65
2022/09/24 13:01:12;;;;;;;;;10.67;10.67;;;;;;;;5023005;28;45617;-65
2022/09/24 13:03:38;;;;;;;;;16.33;15.67;;;;;;;;5061250;28;45546;-65
2022/09/24 13:06:17;;;;;;;;;14.67;13.33;;;;;;;;5061445;28;45359;-65
2022/09/24 13:08:42;;;;;;;;;11.33;10.00;;;;;;;;5051649;28;46138;-66
2022/09/24 13:11:28;;;;;;;;;14.00;11.00;;;;;;;;5044061;28;45296;-65
2022/09/24 13:13:57;;;;;;;;;12.67;11.33;;;;;;;;5061113;28;45356;-65
2022/09/24 13:16:24;;;;;;;;;14.33;14.00;;;;;;;;5059324;28;45655;-68
2022/09/24 13:18:51;;;;;;;;;13.33;12.00;;;;;;;;5048386;28;46185;-65
2022/09/24 13:21:20;;;;;;;;;10.67;10.00;;;;;;;;5062354;28;45275;-66
2022/09/24 13:23:46;;;;;;;;;13.67;12.00;;;;;;;;5048542;28;45932;-65
2022/09/24 13:26:24;;;;;;;;;14.67;13.67;;;;;;;;5062149;28;45314;-65
2022/09/24 13:28:57;;;;;;;;;12.67;11.00;;;;;;;;5060233;28;45358;-65
2022/09/24 13:31:28;;;;;;;;;12.67;12.67;;;;;;;;5060247;28;45335;-66
2022/09/24 13:34:03;;;;;;;;;11.67;11.67;;;;;;;;5048796;28;44882;-66
2022/09/24 13:36:31;;;;;;;;;17.00;13.00;;;;;;;;5049169;28;45458;-63
2022/09/24 13:39:01;;;;;;;;;13.00;12.00;;;;;;;;5049853;28;46991;-62
2022/09/24 13:41:45;;;;;;;;;9.67;9.67;;;;;;;;5044389;28;46094;-62
2022/09/24 13:44:22;;;;;;;;;10.33;10.33;;;;;;;;5053655;28;45232;-63
2022/09/24 13:46:50;;;;;;;;;12.33;11.33;;;;;;;;5052251;28;45657;-63
2022/09/24 13:49:17;;;;;;;;;12.00;12.00;;;;;;;;5040681;28;45447;-62
2022/09/24 13:51:45;;;;;;;;;11.00;9.67;;;;;;;;5055225;28;45224;-62
2022/09/24 13:54:14;;;;;;;;;12.33;12.00;;;;;;;;5051978;28;45752;-62
2022/09/24 13:56:39;;;;;;;;;10.67;9.00;;;;;;;;5056156;28;45540;-63
2022/09/24 13:59:09;;;;;;;;;11.33;11.33;;;;;;;;5051089;28;46174;-62
2022/09/24 14:01:39;;;;;;;;;11.00;7.67;;;;;;;;5043943;28;45387;-63
2022/09/24 14:04:19;;;;;;;;;8.67;8.67;;;;;;;;5058276;28;45403;-62
2022/09/24 14:06:47;;;;;;;;;15.00;13.33;;;;;;;;5042190;28;45384;-63
2022/09/24 14:09:23;;;;;;;;;13.67;11.00;;;;;;;;5053071;28;45991;-63
2022/09/24 14:11:49;;;;;;;;;15.00;13.00;;;;;;;;5052530;28;45283;-61
2022/09/24 14:14:19;;;;;;;;;10.67;9.00;;;;;;;;5043557;28;45481;-62
2022/09/24 14:16:45;;;;;;;;;11.33;11.33;;;;;;;;5041595;28;45184;-62
2022/09/24 14:19:14;;;;;;;;;9.67;9.00;;;;;;;;5037575;28;46038;-62
2022/09/24 14:21:43;;;;;;;;;14.33;14.33;;;;;;;;5050999;28;45563;-62
2022/09/24 14:24:15;;;;;;;;;14.67;11.00;;;;;;;;5055074;28;45244;-62
2022/09/24 14:26:45;;;;;;;;;12.00;10.33;;;;;;;;5041921;28;45465;-62
2022/09/24 14:29:12;;;;;;;;;11.00;11.00;;;;;;;;5044589;28;45468;-63
2022/09/24 14:31:42;;;;;;;;;10.00;10.00;;;;;;;;5054595;28;45385;-63
2022/09/24 14:34:20;;;;;;;;;13.00;12.00;;;;;;;;5059223;28;45636;-64
2022/09/24 14:36:46;;;;;;;;;13.00;12.33;;;;;;;;5057130;28;46336;-65
2022/09/24 14:39:12;;;;;;;;;11.33;11.33;;;;;;;;5057347;28;47067;-64
2022/09/24 14:41:37;;;;;;;;;11.67;10.33;;;;;;;;5056711;28;45402;-64
2022/09/24 14:44:20;;;;;;;;;10.33;10.33;;;;;;;;5057074;28;45418;-65
2022/09/24 14:46:48;;;;;;;;;14.67;13.33;;;;;;;;5057011;28;45275;-64
2022/09/24 14:49:18;;;;;;;;;20.33;15.67;;;;;;;;5056797;28;45400;-64
2022/09/24 14:51:51;;;;;;;;;15.00;12.33;;;;;;;;5056278;28;45277;-64
2022/09/24 14:54:31;;;;;;;;;15.67;14.00;;;;;;;;5055227;28;45385;-64
2022/09/24 14:57:10;;;;;;;;;13.00;12.00;;;;;;;;5046357;28;45320;-63
2022/09/24 14:59:36;;;;;;;;;11.33;9.67;;;;;;;;5056286;28;46310;-64
2022/09/24 15:02:16;;;;;;;;;16.00;12.67;;;;;;;;5038367;28;45304;-64
2022/09/24 15:04:47;;;;;;;;;15.33;13.00;;;;;;;;5054878;28;45301;-65
2022/09/24 15:07:23;;;;;;;;;14.00;14.00;;;;;;;;5057835;28;45494;-67
2022/09/24 15:09:53;;;;;;;;;14.00;14.00;;;;;;;;5052597;28;45490;-66
2022/09/24 15:12:20;;;;;;;;;12.00;12.00;;;;;;;;5056969;28;45366;-66
2022/09/24 15:14:59;;;;;;;;;12.00;10.67;;;;;;;;5057555;28;45296;-67
2022/09/24 15:17:28;;;;;;;;;16.67;13.33;;;;;;;;5045902;28;45476;-67
2022/09/24 15:19:55;;;;;;;;;16.33;16.33;;;;;;;;5047525;28;46628;-65
2022/09/24 15:22:21;;;;;;;;;11.00;11.00;;;;;;;;5053011;28;45379;-65
2022/09/24 15:24:46;;;;;;;;;14.33;12.33;;;;;;;;5055526;28;45323;-64
2022/09/24 15:27:18;;;;;;;;;16.33;12.67;;;;;;;;5053116;28;45490;-71
2022/09/24 15:29:43;;;;;;;;;11.00;11.00;;;;;;;;5054921;28;46759;-76
2022/09/24 15:32:14;;;;;;;;;12.33;12.33;;;;;;;;5055272;28;45871;-77
2022/09/24 15:34:40;;;;;;;;;14.33;10.00;;;;;;;;5048859;28;45557;-67
2022/09/24 15:37:08;;;;;;;;;16.67;13.33;;;;;;;;5043934;28;45732;-72
2022/09/24 15:39:33;;;;;;;;;13.33;13.33;;;;;;;;5056519;28;46202;-73
2022/09/24 15:41:59;;;;;;;;;14.33;13.67;;;;;;;;5050674;28;45423;-74
2022/09/24 15:44:24;;;;;;;;;15.33;14.33;;;;;;;;5066593;28;45302;-73
2022/09/24 15:46:50;;;;;;;;;17.00;14.33;;;;;;;;5077120;28;45452;-72
2022/09/24 15:49:20;;;;;;;;;16.00;15.00;;;;;;;;5075931;28;45426;-72
2022/09/24 15:51:51;;;;;;;;;18.33;15.00;;;;;;;;5065636;28;45348;-72
2022/09/24 15:54:16;;;;;;;;;20.33;17.33;;;;;;;;5074945;28;45255;-73
2022/09/24 15:56:41;;;;;;;;;18.00;16.33;;;;;;;;5066735;28;45643;-72
2022/09/24 15:59:13;;;;;;;;;17.00;13.67;;;;;;;;5061298;28;45586;-72
2022/09/24 16:01:39;;;;;;;;;9.67;9.00;;;;;;;;5068396;28;45361;-73
2022/09/24 16:04:04;;;;;;;;;14.33;9.33;;;;;;;;5073949;28;45417;-72
2022/09/24 16:06:29;;;;;;;;;7.67;7.00;;;;;;;;5058498;28;45243;-73
2022/09/24 16:08:54;;;;;;;;;9.67;8.00;;;;;;;;5049519;28;45582;-73
2022/09/24 16:11:19;;;;;;;;;12.00;9.33;;;;;;;;5058544;28;45318;-71
2022/09/24 16:13:44;;;;;;;;;3.67;3.67;;;;;;;;5057487;28;45517;-72
2022/09/24 16:16:10;;;;;;;;;8.00;6.00;;;;;;;;5051385;28;45518;-72
2022/09/24 16:18:38;;;;;;;;;8.00;6.00;;;;;;;;5046694;28;46964;-72
2022/09/24 16:21:04;;;;;;;;;5.00;5.00;;;;;;;;5054822;28;45327;-73
2022/09/24 16:23:29;;;;;;;;;3.33;3.33;;;;;;;;5046955;28;45445;-73
2022/09/24 16:25:58;;;;;;;;;4.00;4.00;;;;;;;;5055924;28;45249;-73
2022/09/24 16:28:24;;;;;;;;;4.67;4.67;;;;;;;;5060990;28;45426;-73
2022/09/24 16:30:49;;;;;;;;;6.33;4.67;;;;;;;;5060952;28;45332;-72
2022/09/24 16:33:14;;;;;;;;;3.00;3.00;;;;;;;;5061680;28;45574;-73
2022/09/24 16:35:39;;;;;;;;;3.00;3.00;;;;;;;;5054792;28;45347;-73
2022/09/24 16:38:04;;;;;;;;;3.00;3.00;;;;;;;;5056605;28;46263;-72
2022/09/24 16:40:30;;;;;;;;;3.00;3.00;;;;;;;;5059509;28;45330;-72
2022/09/24 16:42:55;;;;;;;;;3.00;2.00;;;;;;;;5049346;28;45532;-73
2022/09/24 16:45:20;;;;;;;;;3.67;3.67;;;;;;;;5059555;28;45714;-73
2022/09/24 16:47:45;;;;;;;;;3.33;2.00;;;;;;;;5057215;28;45955;-72
2022/09/24 16:50:10;;;;;;;;;7.00;4.00;;;;;;;;5059719;28;45236;-73
2022/09/24 16:52:36;;;;;;;;;4.00;3.00;;;;;;;;5055232;28;45397;-73
2022/09/24 16:55:01;;;;;;;;;2.67;2.67;;;;;;;;5056010;28;45290;-72
2022/09/24 16:57:26;;;;;;;;;5.00;3.33;;;;;;;;5057456;28;45400;-73
2022/09/24 16:59:51;;;;;;;;;5.33;4.67;;;;;;;;5052383;28;45422;-73
2022/09/24 17:02:17;;;;;;;;;5.00;3.00;;;;;;;;5051741;28;45365;-73
2022/09/24 17:04:42;;;;;;;;;3.00;3.00;;;;;;;;5058664;28;45358;-74
2022/09/24 17:07:07;;;;;;;;;3.00;3.00;;;;;;;;5057354;28;45419;-73
2022/09/24 17:10:16;;;;;;;;;1.00;1.00;;;;;;;;5053555;28;45413;-73
2022/09/24 17:12:21;;;;;;;;;1.00;1.00;;;;;;;;5044545;28;45229;-73
2022/09/24 17:14:46;;;;;;;;;2.00;2.00;;;;;;;;5054130;28;45575;-73
2022/09/24 17:17:11;;;;;;;;;1.00;1.00;;;;;;;;5055246;28;46101;-74
2022/09/24 17:19:36;;;;;;;;;2.67;1.00;;;;;;;;5060073;28;45350;-72
2022/09/24 17:22:01;;;;;;;;;0.67;0.67;;;;;;;;5055840;28;45542;-72
2022/09/24 17:24:26;;;;;;;;;2.00;1.00;;;;;;;;5060673;28;45447;-73
2022/09/24 17:26:53;;;;;;;;;0.00;0.00;;;;;;;;5055429;28;46131;-73
2022/09/24 17:29:20;;;;;;;;;1.00;1.00;;;;;;;;5059385;28;45383;-73
2022/09/24 17:31:46;;;;;;;;;1.00;1.00;;;;;;;;5054712;28;45447;-73
2022/09/24 17:34:13;;;;;;;;;1.00;1.00;;;;;;;;5052880;28;45289;-72
2022/09/24 17:36:40;;;;;;;;;2.00;2.00;;;;;;;;5042287;28;46303;-72
2022/09/24 17:39:05;;;;;;;;;3.00;2.00;;;;;;;;5054838;28;46017;-73
2022/09/24 17:41:31;;;;;;;;;3.00;2.00;;;;;;;;5055161;28;45379;-73
2022/09/24 17:43:59;;;;;;;;;1.00;1.00;;;;;;;;5054537;28;45368;-72
2022/09/24 17:46:28;;;;;;;;;1.00;1.00;;;;;;;;5055008;28;46366;-73
2022/09/24 17:48:55;;;;;;;;;2.00;2.00;;;;;;;;5053294;28;44997;-72
2022/09/24 17:51:25;;;;;;;;;2.00;2.00;;;;;;;;5055718;28;45234;-72
2022/09/24 17:53:51;;;;;;;;;2.33;2.33;;;;;;;;5059863;28;45419;-72
2022/09/24 17:56:18;;;;;;;;;3.00;2.00;;;;;;;;5059163;28;47070;-73
2022/09/24 17:58:45;;;;;;;;;3.67;3.00;;;;;;;;5053099;28;45278;-72
2022/09/24 18:01:12;;;;;;;;;3.00;3.00;;;;;;;;5050485;28;45305;-72
2022/09/24 18:03:37;;;;;;;;;5.00;5.00;;;;;;;;5050568;28;45541;-72
2022/09/24 18:06:04;;;;;;;;;4.33;4.00;;;;;;;;5053396;28;46152;-72
2022/09/24 18:08:29;;;;;;;;;4.00;4.00;;;;;;;;5051331;28;45468;-73
2022/09/24 18:11:05;;;;;;;;;3.00;3.00;;;;;;;;5053759;28;45427;-72
2022/09/24 18:13:33;;;;;;;;;6.00;5.00;;;;;;;;5056715;28;45319;-71
2022/09/24 18:16:18;;;;;;;;;5.67;5.00;;;;;;;;5056820;28;47241;-72
2022/09/24 18:18:44;;;;;;;;;3.00;3.00;;;;;;;;5052751;28;45283;-72
2022/09/24 18:21:10;;;;;;;;;6.00;6.00;;;;;;;;5059777;28;45927;-72
2022/09/24 18:23:35;;;;;;;;;5.00;5.00;;;;;;;;5054672;28;45706;-72
2022/09/24 18:26:09;;;;;;;;;6.33;6.33;;;;;;;;5053205;28;45304;-73
2022/09/24 18:28:34;;;;;;;;;8.00;5.67;;;;;;;;5054317;28;45449;-73
2022/09/24 18:31:02;;;;;;;;;3.67;3.33;;;;;;;;5058622;28;45153;-73
2022/09/24 18:33:27;;;;;;;;;6.33;4.33;;;;;;;;5053143;28;45288;-72
2022/09/24 18:35:52;;;;;;;;;7.67;6.00;;;;;;;;5059069;28;47223;-72
2022/09/24 18:38:17;;;;;;;;;7.00;5.33;;;;;;;;5045464;28;45471;-71
2022/09/24 18:40:42;;;;;;;;;6.00;5.00;;;;;;;;5051831;28;45466;-72
2022/09/24 18:43:08;;;;;;;;;5.33;5.33;;;;;;;;5053241;28;45367;-72
2022/09/24 18:45:33;;;;;;;;;5.00;5.00;;;;;;;;5057660;28;45463;-72
2022/09/24 18:47:58;;;;;;;;;4.00;4.00;;;;;;;;5046024;28;45424;-72
2022/09/24 18:50:24;;;;;;;;;6.33;5.33;;;;;;;;5059825;28;45302;-72
2022/09/24 18:52:50;;;;;;;;;5.67;5.67;;;;;;;;5055164;28;45359;-72
2022/09/24 18:55:15;;;;;;;;;8.00;8.00;;;;;;;;5059448;28;46414;-72
2022/09/24 18:57:40;;;;;;;;;5.00;5.00;;;;;;;;5048566;28;45279;-72
2022/09/24 19:00:48;;;;;;;;;5.00;4.00;;;;;;;;5054489;28;45640;-73
2022/09/24 19:02:51;;;;;;;;;7.33;5.67;;;;;;;;5052365;28;45488;-73
2022/09/24 19:05:16;;;;;;;;;10.67;9.00;;;;;;;;5059277;28;46124;-72
2022/09/24 19:07:42;;;;;;;;;7.00;7.00;;;;;;;;5053941;28;45455;-72
2022/09/24 19:10:09;;;;;;;;;9.33;8.00;;;;;;;;5055039;28;45345;-72
2022/09/24 19:12:37;;;;;;;;;12.67;11.33;;;;;;;;5053753;28;45481;-73
2022/09/24 19:15:03;;;;;;;;;11.67;10.33;;;;;;;;5054746;28;46803;-72
2022/09/24 19:17:28;;;;;;;;;6.33;6.00;;;;;;;;5054513;28;45346;-72
2022/09/24 19:19:53;;;;;;;;;7.33;7.33;;;;;;;;5058793;28;45488;-72
2022/09/24 19:22:18;;;;;;;;;14.00;12.33;;;;;;;;5058884;28;45533;-72
2022/09/24 19:24:44;;;;;;;;;12.33;11.00;;;;;;;;5053585;28;46026;-73
2022/09/24 19:27:09;;;;;;;;;15.67;15.67;;;;;;;;5049840;28;45622;-72
2022/09/24 19:29:34;;;;;;;;;15.00;14.67;;;;;;;;5050017;28;45553;-72
2022/09/24 19:31:59;;;;;;;;;12.33;10.67;;;;;;;;5052551;28;45436;-72
2022/09/24 19:34:24;;;;;;;;;14.00;10.67;;;;;;;;5053095;28;45242;-72
2022/09/24 19:36:50;;;;;;;;;11.67;9.67;;;;;;;;5052637;28;45366;-72
2022/09/24 19:39:15;;;;;;;;;28.00;24.33;;;;;;;;5052864;28;45407;-71
2022/09/24 19:41:41;;;;;;;;;19.33;19.33;;;;;;;;5058263;28;45428;-72
2022/09/24 19:44:07;;;;;;;;;13.67;11.33;;;;;;;;5052121;28;45336;-74
2022/09/24 19:46:32;;;;;;;;;11.33;11.00;;;;;;;;5050573;28;45642;-73
2022/09/24 19:48:58;;;;;;;;;11.33;9.00;;;;;;;;5055004;28;45667;-72
2022/09/24 19:51:24;;;;;;;;;16.67;11.67;;;;;;;;5049435;28;45417;-73
2022/09/24 19:53:50;;;;;;;;;8.00;8.00;;;;;;;;5046330;28;47513;-73
2022/09/24 19:56:18;;;;;;;;;11.67;7.00;;;;;;;;5051741;28;45473;-72
2022/09/24 19:58:44;;;;;;;;;7.33;7.00;;;;;;;;5058008;28;45506;-72
2022/09/24 20:01:09;;;;;;;;;7.33;7.33;;;;;;;;5054836;28;45353;-72
2022/09/24 20:03:35;;;;;;;;;7.33;7.33;;;;;;;;5057679;28;45568;-71
2022/09/24 20:06:08;;;;;;;;;10.67;10.00;;;;;;;;5053051;28;45464;-71
2022/09/24 20:08:33;;;;;;;;;8.67;8.00;;;;;;;;5057474;28;45471;-71
2022/09/24 20:11:05;;;;;;;;;15.33;12.67;;;;;;;;5053889;28;45330;-71
2022/09/24 20:13:31;;;;;;;;;9.67;8.67;;;;;;;;5047782;28;45338;-71
2022/09/24 20:15:57;;;;;;;;;14.00;12.67;;;;;;;;5054740;28;45208;-72
2022/09/24 20:18:22;;;;;;;;;9.00;8.33;;;;;;;;5052819;28;45241;-71
2022/09/24 20:20:47;;;;;;;;;10.67;10.33;;;;;;;;5051115;28;45220;-71
2022/09/24 20:23:12;;;;;;;;;18.00;14.33;;;;;;;;5046352;28;46270;-71
2022/09/24 20:28:21;;;;;;;;;12.33;10.67;;;;;;;;5051595;28;45598;-72
2022/09/24 20:30:46;;;;;;;;;10.33;10.33;;;;;;;;5054796;28;45498;-72
2022/09/24 20:33:12;;;;;;;;;9.00;9.00;;;;;;;;5050505;28;45991;-70
2022/09/24 20:35:38;;;;;;;;;14.00;13.67;;;;;;;;5052418;28;45283;-70
2022/09/24 20:38:04;;;;;;;;;19.33;17.67;;;;;;;;5060432;28;45353;-71
2022/09/24 20:40:29;;;;;;;;;15.00;13.67;;;;;;;;5061368;28;45389;-71
2022/09/24 20:42:54;;;;;;;;;12.33;10.33;;;;;;;;5054460;28;45358;-71
2022/09/24 20:45:20;;;;;;;;;10.67;10.00;;;;;;;;5061333;28;45290;-71
2022/09/24 20:47:48;;;;;;;;;12.33;10.33;;;;;;;;5057437;28;45287;-71